Time,TemperatureF,DewpointF,PressureIn,WindDirection,WindDirectionDegrees,WindSpeedMPH,WindSpeedGustMPH,Humidity,HourlyPrecipIn,Conditions,Clouds,dailyrainin,SoftwareType,DateUTC
2013-02-03 00:00:00,16.4,12.4,30.06,SW,227,1.0,2.0,84,0.00,,,0.00,Wunderground v.1.13,2013-02-03 05:00:00,
2013-02-03 00:02:00,16.4,12.4,30.06,WSW,243,0.0,2.0,84,0.00,,,0.00,Wunderground v.1.13,2013-02-03 05:02:00,
2013-02-03 00:03:00,16.4,12.7,30.06,WSW,243,1.0,1.0,85,0.00,,,0.00,Wunderground v.1.13,2013-02-03 05:03:00,
2013-02-03 00:09:00,16.5,12.8,30.06,WSW,243,0.0,1.0,85,0.00,,,0.00,Wunderground v.1.13,2013-02-03 05:09:00,
2013-02-03 00:12:00,16.5,12.8,30.06,WSW,243,0.0,1.0,85,0.00,,,0.00,Wunderground v.1.13,2013-02-03 05:12:00,
2013-02-03 00:19:00,16.6,12.9,30.06,WSW,243,0.0,0.0,85,0.00,,,0.00,Wunderground v.1.13,2013-02-03 05:19:00,
2013-02-03 00:24:00,16.6,12.9,30.06,WSW,243,0.0,0.0,85,0.00,,,0.00,Wunderground v.1.13,2013-02-03 05:24:00,
2013-02-03 00:30:00,16.6,12.9,30.05,WSW,243,0.0,0.0,85,0.00,,,0.00,Wunderground v.1.13,2013-02-03 05:30:00,
2013-02-03 00:37:00,16.7,13.0,30.05,WSW,243,0.0,1.0,85,0.00,,,0.00,Wunderground v.1.13,2013-02-03 05:37:00,
2013-02-03 00:43:00,16.8,13.1,30.05,WSW,243,0.0,0.0,85,0.00,,,0.00,Wunderground v.1.13,2013-02-03 05:43:00,
2013-02-03 00:49:00,16.9,13.2,30.05,WSW,243,0.0,0.0,85,0.00,,,0.00,Wunderground v.1.13,2013-02-03 05:49:00,
2013-02-03 00:55:00,17.1,13.4,30.05,WSW,243,2.0,2.0,85,0.00,,,0.00,Wunderground v.1.13,2013-02-03 05:55:00,
2013-02-03 01:00:00,17.0,13.0,30.05,WSW,243,0.0,0.0,84,0.00,,,0.00,Wunderground v.1.13,2013-02-03 06:00:00,
2013-02-03 01:06:00,17.0,13.0,30.04,SW,216,0.0,1.0,84,0.00,,,0.00,Wunderground v.1.13,2013-02-03 06:06:00,
2013-02-03 01:12:00,16.9,12.9,30.04,SW,216,0.0,0.0,84,0.00,,,0.00,Wunderground v.1.13,2013-02-03 06:12:00,
2013-02-03 01:18:00,16.9,12.4,30.04,SW,216,0.0,0.0,82,0.00,,,0.00,Wunderground v.1.13,2013-02-03 06:18:00,
2013-02-03 01:25:00,16.7,12.2,30.04,WSW,247,1.0,1.0,82,0.00,,,0.00,Wunderground v.1.13,2013-02-03 06:25:00,
2013-02-03 01:30:00,16.5,12.0,30.04,SW,227,2.0,2.0,82,0.00,,,0.00,Wunderground v.1.13,2013-02-03 06:30:00,
2013-02-03 01:35:00,16.4,11.9,30.04,SW,227,1.0,1.0,82,0.00,,,0.00,Wunderground v.1.13,2013-02-03 06:35:00,
2013-02-03 01:41:00,16.2,11.4,30.03,WSW,249,0.0,1.0,81,0.00,,,0.00,Wunderground v.1.13,2013-02-03 06:41:00,
2013-02-03 01:47:00,16.1,11.6,30.03,WSW,248,1.0,1.0,82,0.00,,,0.00,Wunderground v.1.13,2013-02-03 06:47:00,
2013-02-03 01:53:00,16.0,11.5,30.03,WSW,252,0.0,1.0,82,0.00,,,0.00,Wunderground v.1.13,2013-02-03 06:53:00,
2013-02-03 01:59:00,16.0,11.5,30.03,WSW,252,0.0,1.0,82,0.00,,,0.00,Wunderground v.1.13,2013-02-03 06:59:00,
2013-02-03 02:04:00,16.1,11.6,30.03,WSW,252,0.0,1.0,82,0.00,,,0.00,Wunderground v.1.13,2013-02-03 07:04:00,
2013-02-03 02:09:00,16.1,11.6,30.03,West,273,0.0,3.0,82,0.00,,,0.00,Wunderground v.1.13,2013-02-03 07:09:00,
2013-02-03 02:14:00,16.1,11.6,30.02,WSW,250,0.0,1.0,82,0.00,,,0.00,Wunderground v.1.13,2013-02-03 07:14:00,
2013-02-03 02:19:00,16.2,11.9,30.02,WSW,252,2.0,2.0,83,0.00,,,0.00,Wunderground v.1.13,2013-02-03 07:19:00,
2013-02-03 02:24:00,16.2,11.7,30.02,WSW,246,2.0,3.0,82,0.00,,,0.00,Wunderground v.1.13,2013-02-03 07:24:00,
2013-02-03 02:29:00,16.2,11.9,30.02,SSW,213,2.0,2.0,83,0.00,,,0.00,Wunderground v.1.13,2013-02-03 07:29:00,
2013-02-03 02:34:00,16.2,11.7,30.02,WSW,246,0.0,1.0,82,0.00,,,0.00,Wunderground v.1.13,2013-02-03 07:34:00,
2013-02-03 02:39:00,16.2,11.7,30.02,WSW,246,1.0,1.0,82,0.00,,,0.00,Wunderground v.1.13,2013-02-03 07:39:00,
2013-02-03 02:44:00,16.2,11.7,30.02,West,266,0.0,1.0,82,0.00,,,0.00,Wunderground v.1.13,2013-02-03 07:44:00,
2013-02-03 02:49:00,16.3,11.8,30.02,West,266,0.0,2.0,82,0.00,,,0.00,Wunderground v.1.13,2013-02-03 07:49:00,
2013-02-03 02:55:00,16.4,11.9,30.01,West,266,0.0,0.0,82,0.00,,,0.00,Wunderground v.1.13,2013-02-03 07:55:00,
2013-02-03 03:00:00,16.5,12.0,30.01,West,266,0.0,0.0,82,0.00,,,0.00,Wunderground v.1.13,2013-02-03 08:00:00,
2013-02-03 03:05:00,16.6,12.1,30.01,West,266,0.0,0.0,82,0.00,,,0.00,Wunderground v.1.13,2013-02-03 08:05:00,
2013-02-03 03:10:00,16.8,12.3,30.01,West,266,0.0,0.0,82,0.00,,,0.00,Wunderground v.1.13,2013-02-03 08:10:00,
2013-02-03 03:15:00,16.8,12.0,30.01,West,266,0.0,0.0,81,0.00,,,0.00,Wunderground v.1.13,2013-02-03 08:15:00,
2013-02-03 03:21:00,16.9,11.8,30.01,West,266,0.0,0.0,80,0.00,,,0.00,Wunderground v.1.13,2013-02-03 08:21:00,
2013-02-03 03:26:00,17.0,11.9,30.00,West,266,0.0,0.0,80,0.00,,,0.00,Wunderground v.1.13,2013-02-03 08:26:00,
2013-02-03 03:32:00,16.8,12.0,30.00,West,266,0.0,1.0,81,0.00,,,0.00,Wunderground v.1.13,2013-02-03 08:32:00,
2013-02-03 03:37:00,16.7,11.9,30.00,West,266,0.0,1.0,81,0.00,,,0.00,Wunderground v.1.13,2013-02-03 08:37:00,
2013-02-03 03:43:00,16.6,11.8,30.00,West,266,0.0,0.0,81,0.00,,,0.00,Wunderground v.1.13,2013-02-03 08:43:00,
2013-02-03 03:48:00,16.4,11.6,30.00,West,266,0.0,0.0,81,0.00,,,0.00,Wunderground v.1.13,2013-02-03 08:48:00,
2013-02-03 03:53:00,16.4,11.6,30.00,West,266,0.0,0.0,81,0.00,,,0.00,Wunderground v.1.13,2013-02-03 08:53:00,
2013-02-03 03:58:00,16.2,11.4,29.99,West,266,0.0,0.0,81,0.00,,,0.00,Wunderground v.1.13,2013-02-03 08:58:00,
2013-02-03 04:03:00,16.1,11.6,29.99,West,266,0.0,0.0,82,0.00,,,0.00,Wunderground v.1.13,2013-02-03 09:03:00,
2013-02-03 04:09:00,16.1,11.8,29.99,West,266,0.0,0.0,83,0.00,,,0.00,Wunderground v.1.13,2013-02-03 09:09:00,
2013-02-03 04:14:00,16.2,11.9,29.99,West,266,0.0,0.0,83,0.00,,,0.00,Wunderground v.1.13,2013-02-03 09:14:00,
2013-02-03 04:19:00,16.2,11.9,29.99,West,266,0.0,0.0,83,0.00,,,0.00,Wunderground v.1.13,2013-02-03 09:19:00,
2013-02-03 04:24:00,16.3,12.0,29.99,West,266,0.0,0.0,83,0.00,,,0.00,Wunderground v.1.13,2013-02-03 09:24:00,
2013-02-03 04:29:00,16.4,12.1,29.99,West,266,0.0,0.0,83,0.00,,,0.00,Wunderground v.1.13,2013-02-03 09:29:00,
2013-02-03 04:34:00,16.1,11.6,29.99,West,266,0.0,0.0,82,0.00,,,0.00,Wunderground v.1.13,2013-02-03 09:34:00,
2013-02-03 04:39:00,16.1,11.6,29.99,West,266,0.0,0.0,82,0.00,,,0.00,Wunderground v.1.13,2013-02-03 09:39:00,
2013-02-03 04:44:00,16.1,11.8,29.99,West,266,0.0,0.0,83,0.00,,,0.00,Wunderground v.1.13,2013-02-03 09:44:00,
2013-02-03 04:49:00,15.9,11.4,29.99,West,266,0.0,0.0,82,0.00,,,0.00,Wunderground v.1.13,2013-02-03 09:49:00,
2013-02-03 04:54:00,15.8,11.6,29.99,West,266,0.0,0.0,83,0.00,,,0.00,Wunderground v.1.13,2013-02-03 09:54:00,
2013-02-03 05:00:00,15.9,11.9,29.99,West,266,1.0,1.0,84,0.00,,,0.00,Wunderground v.1.13,2013-02-03 10:00:00,
2013-02-03 05:05:00,15.4,11.2,29.98,West,266,0.0,0.0,83,0.00,,,0.00,Wunderground v.1.13,2013-02-03 10:05:00,
2013-02-03 05:10:00,15.3,11.3,29.99,West,266,0.0,0.0,84,0.00,,,0.00,Wunderground v.1.13,2013-02-03 10:10:00,
2013-02-03 05:15:00,15.3,11.3,29.98,West,266,0.0,0.0,84,0.00,,,0.00,Wunderground v.1.13,2013-02-03 10:15:00,
2013-02-03 05:20:00,15.0,11.0,29.98,West,266,0.0,0.0,84,0.00,,,0.00,Wunderground v.1.13,2013-02-03 10:20:00,
2013-02-03 05:25:00,14.8,10.8,29.98,West,266,0.0,0.0,84,0.00,,,0.00,Wunderground v.1.13,2013-02-03 10:25:00,
2013-02-03 05:30:00,14.6,10.9,29.98,West,266,0.0,0.0,85,0.00,,,0.00,Wunderground v.1.13,2013-02-03 10:30:00,
2013-02-03 05:35:00,14.3,10.6,29.98,West,266,0.0,0.0,85,0.00,,,0.00,Wunderground v.1.13,2013-02-03 10:35:00,
2013-02-03 05:40:00,13.9,10.2,29.98,West,266,0.0,0.0,85,0.00,,,0.00,Wunderground v.1.13,2013-02-03 10:40:00,
2013-02-03 05:46:00,13.8,10.4,29.98,West,266,0.0,0.0,86,0.00,,,0.00,Wunderground v.1.13,2013-02-03 10:46:00,
2013-02-03 05:51:00,13.6,10.2,29.98,West,266,0.0,0.0,86,0.00,,,0.00,Wunderground v.1.13,2013-02-03 10:51:00,
2013-02-03 05:56:00,13.5,10.1,29.98,West,266,0.0,0.0,86,0.00,,,0.00,Wunderground v.1.13,2013-02-03 10:56:00,
2013-02-03 06:01:00,13.3,9.9,29.98,West,266,0.0,0.0,86,0.00,,,0.00,Wunderground v.1.13,2013-02-03 11:01:00,
2013-02-03 06:13:00,12.8,9.7,29.98,West,266,0.0,0.0,87,0.00,,,0.00,Wunderground v.1.13,2013-02-03 11:13:00,
2013-02-03 06:18:00,12.6,9.5,29.97,West,266,0.0,0.0,87,0.00,,,0.00,Wunderground v.1.13,2013-02-03 11:18:00,
2013-02-03 06:23:00,12.2,9.1,29.98,West,266,0.0,0.0,87,0.00,,,0.00,Wunderground v.1.13,2013-02-03 11:23:00,
2013-02-03 06:29:00,12.1,9.0,29.98,West,266,0.0,0.0,87,0.00,,,0.00,Wunderground v.1.13,2013-02-03 11:29:00,
2013-02-03 06:35:00,12.1,9.0,29.98,West,266,0.0,0.0,87,0.00,,,0.00,Wunderground v.1.13,2013-02-03 11:35:00,
2013-02-03 06:40:00,12.1,9.0,29.98,West,266,0.0,0.0,87,0.00,,,0.00,Wunderground v.1.13,2013-02-03 11:40:00,
2013-02-03 06:46:00,12.2,9.3,29.98,West,266,0.0,0.0,88,0.00,,,0.00,Wunderground v.1.13,2013-02-03 11:46:00,
2013-02-03 06:53:00,12.1,9.0,29.98,West,266,0.0,0.0,87,0.00,,,0.00,Wunderground v.1.13,2013-02-03 11:53:00,
2013-02-03 06:58:00,12.1,9.0,29.98,West,266,0.0,0.0,87,0.00,,,0.00,Wunderground v.1.13,2013-02-03 11:58:00,
2013-02-03 07:03:00,12.1,9.0,29.98,West,266,0.0,0.0,87,0.00,,,0.00,Wunderground v.1.13,2013-02-03 12:03:00,
2013-02-03 07:08:00,11.7,8.6,29.98,West,266,0.0,0.0,87,0.00,,,0.00,Wunderground v.1.13,2013-02-03 12:08:00,
2013-02-03 07:13:00,11.5,8.4,29.98,West,266,0.0,0.0,87,0.00,,,0.00,Wunderground v.1.13,2013-02-03 12:13:00,
2013-02-03 07:18:00,11.2,8.1,29.97,West,266,0.0,0.0,87,0.00,,,0.00,Wunderground v.1.13,2013-02-03 12:18:00,
2013-02-03 07:23:00,11.0,7.9,29.97,West,266,0.0,0.0,87,0.00,,,0.00,Wunderground v.1.13,2013-02-03 12:23:00,
2013-02-03 07:29:00,11.0,8.1,29.97,West,266,0.0,0.0,88,0.00,,,0.00,Wunderground v.1.13,2013-02-03 12:29:00,
2013-02-03 07:35:00,11.0,7.9,29.98,West,266,0.0,0.0,87,0.00,,,0.00,Wunderground v.1.13,2013-02-03 12:35:00,
2013-02-03 07:41:00,11.2,8.3,29.98,West,266,0.0,0.0,88,0.00,,,0.00,Wunderground v.1.13,2013-02-03 12:41:00,
2013-02-03 07:46:00,11.2,8.3,29.98,West,266,0.0,0.0,88,0.00,,,0.00,Wunderground v.1.13,2013-02-03 12:46:00,
2013-02-03 07:51:00,10.9,7.8,29.98,West,266,0.0,0.0,87,0.00,,,0.00,Wunderground v.1.13,2013-02-03 12:51:00,
2013-02-03 07:56:00,10.7,7.6,29.98,West,266,0.0,0.0,87,0.00,,,0.00,Wunderground v.1.13,2013-02-03 12:56:00,
2013-02-03 08:01:00,10.9,8.0,29.98,West,266,0.0,0.0,88,0.00,,,0.00,Wunderground v.1.13,2013-02-03 13:01:00,
2013-02-03 08:06:00,11.1,8.2,29.98,West,266,0.0,0.0,88,0.00,,,0.00,Wunderground v.1.13,2013-02-03 13:06:00,
2013-02-03 08:11:00,11.2,8.3,29.98,West,266,0.0,1.0,88,0.00,,,0.00,Wunderground v.1.13,2013-02-03 13:11:00,
2013-02-03 08:16:00,11.3,8.4,29.98,West,266,0.0,0.0,88,0.00,,,0.00,Wunderground v.1.13,2013-02-03 13:16:00,
2013-02-03 08:22:00,12.0,9.1,29.98,West,266,0.0,0.0,88,0.00,,,0.00,Wunderground v.1.13,2013-02-03 13:22:00,
2013-02-03 08:28:00,13.0,10.1,29.98,West,266,0.0,0.0,88,0.00,,,0.00,Wunderground v.1.13,2013-02-03 13:28:00,
2013-02-03 08:33:00,13.8,10.6,29.98,West,266,0.0,0.0,87,0.00,,,0.00,Wunderground v.1.13,2013-02-03 13:33:00,
2013-02-03 08:38:00,14.4,11.0,29.98,West,266,0.0,0.0,86,0.00,,,0.00,Wunderground v.1.13,2013-02-03 13:38:00,
2013-02-03 08:43:00,15.0,11.0,29.98,West,266,0.0,0.0,84,0.00,,,0.00,Wunderground v.1.13,2013-02-03 13:43:00,
2013-02-03 08:53:00,15.8,11.6,29.98,WSW,246,0.0,2.0,83,0.00,,,0.00,Wunderground v.1.13,2013-02-03 13:53:00,
2013-02-03 08:58:00,16.4,12.1,29.98,WSW,246,1.0,1.0,83,0.00,,,0.00,Wunderground v.1.13,2013-02-03 13:58:00,
2013-02-03 09:04:00,17.1,12.6,29.98,WSW,246,0.0,0.0,82,0.00,,,0.00,Wunderground v.1.13,2013-02-03 14:04:00,
2013-02-03 09:13:00,18.2,13.1,29.97,WSW,246,0.0,0.0,80,0.00,,,0.00,Wunderground v.1.13,2013-02-03 14:13:00,
2013-02-03 09:18:00,18.2,12.5,29.97,WSW,246,0.0,1.0,78,0.00,,,0.00,Wunderground v.1.13,2013-02-03 14:18:00,
2013-02-03 09:23:00,18.0,12.0,29.97,WSW,255,2.0,2.0,77,0.00,,,0.00,Wunderground v.1.13,2013-02-03 14:23:00,
2013-02-03 09:28:00,18.5,12.5,29.97,East,86,1.0,1.0,77,0.00,,,0.00,Wunderground v.1.13,2013-02-03 14:28:00,
2013-02-03 09:34:00,19.3,13.0,29.96,NE,41,3.0,3.0,76,0.00,,,0.00,Wunderground v.1.13,2013-02-03 14:34:00,
2013-02-03 09:39:00,19.3,12.1,29.96,NNW,331,1.0,2.0,73,0.00,,,0.00,Wunderground v.1.13,2013-02-03 14:39:00,
2013-02-03 09:44:00,19.1,11.6,29.96,North,5,2.0,2.0,72,0.00,,,0.00,Wunderground v.1.13,2013-02-03 14:44:00,
2013-02-03 09:50:00,19.0,11.5,29.95,NNE,20,3.0,3.0,72,0.00,,,0.00,Wunderground v.1.13,2013-02-03 14:50:00,
2013-02-03 09:55:00,19.2,11.6,29.95,NNE,23,2.0,2.0,72,0.00,,,0.00,Wunderground v.1.13,2013-02-03 14:55:00,
2013-02-03 10:00:00,19.5,11.9,29.95,NNE,25,0.0,3.0,72,0.00,,,0.00,Wunderground v.1.13,2013-02-03 15:00:00,
2013-02-03 10:05:00,20.1,12.5,29.95,SSE,147,3.0,3.0,72,0.00,,,0.00,Wunderground v.1.13,2013-02-03 15:05:00,
2013-02-03 10:11:00,20.6,12.4,29.95,NNE,13,1.0,3.0,70,0.00,,,0.00,Wunderground v.1.13,2013-02-03 15:11:00,
2013-02-03 10:16:00,20.3,11.7,29.95,NNW,333,3.0,3.0,69,0.00,,,0.00,Wunderground v.1.13,2013-02-03 15:16:00,
2013-02-03 10:21:00,20.1,11.6,29.95,SSE,163,0.0,5.0,69,0.00,,,0.00,Wunderground v.1.13,2013-02-03 15:21:00,
2013-02-03 10:26:00,20.6,10.0,29.94,SE,127,1.0,4.0,63,0.00,,,0.00,Wunderground v.1.13,2013-02-03 15:26:00,
2013-02-03 10:31:00,21.1,10.5,29.94,ESE,102,1.0,4.0,63,0.00,,,0.00,Wunderground v.1.13,2013-02-03 15:31:00,
2013-02-03 10:36:00,21.5,10.1,29.94,East,101,6.0,7.0,61,0.00,,,0.00,Wunderground v.1.13,2013-02-03 15:36:00,
2013-02-03 10:41:00,21.7,11.0,29.94,East,90,0.0,3.0,63,0.00,,,0.00,Wunderground v.1.13,2013-02-03 15:41:00,
2013-02-03 10:46:00,21.7,9.9,29.93,ESE,120,3.0,6.0,60,0.00,,,0.00,Wunderground v.1.13,2013-02-03 15:46:00,
2013-02-03 10:51:00,21.8,10.0,29.93,SSW,213,3.0,5.0,60,0.00,,,0.00,Wunderground v.1.13,2013-02-03 15:51:00,
2013-02-03 10:56:00,21.8,10.0,29.93,SE,128,1.0,4.0,60,0.00,,,0.00,Wunderground v.1.13,2013-02-03 15:56:00,
2013-02-03 11:01:00,21.9,10.1,29.92,ESE,112,1.0,4.0,60,0.00,,,0.00,Wunderground v.1.13,2013-02-03 16:01:00,
2013-02-03 11:06:00,21.8,10.0,29.92,East,83,3.0,5.0,60,0.00,,,0.00,Wunderground v.1.13,2013-02-03 16:06:00,
2013-02-03 11:11:00,21.6,10.2,29.92,East,84,1.0,6.0,61,0.00,,,0.00,Wunderground v.1.13,2013-02-03 16:11:00,
2013-02-03 11:17:00,21.5,10.5,29.91,NE,48,1.0,3.0,62,0.00,,,0.00,Wunderground v.1.13,2013-02-03 16:17:00,
2013-02-03 11:22:00,21.5,11.2,29.91,East,85,3.0,3.0,64,0.00,,,0.00,Wunderground v.1.13,2013-02-03 16:22:00,
2013-02-03 11:27:00,21.7,11.0,29.90,East,100,1.0,2.0,63,0.00,,,0.00,Wunderground v.1.13,2013-02-03 16:27:00,
2013-02-03 11:32:00,22.0,11.0,29.90,ESE,105,2.0,6.0,62,0.00,,,0.00,Wunderground v.1.13,2013-02-03 16:32:00,
2013-02-03 11:37:00,22.3,11.2,29.90,East,81,3.0,4.0,62,0.00,,,0.00,Wunderground v.1.13,2013-02-03 16:37:00,
2013-02-03 11:42:00,22.3,11.6,29.89,WSW,242,0.0,2.0,63,0.00,,,0.00,Wunderground v.1.13,2013-02-03 16:42:00,
2013-02-03 11:47:00,22.7,11.3,29.89,SSW,207,2.0,4.0,61,0.00,,,0.00,Wunderground v.1.13,2013-02-03 16:47:00,
2013-02-03 11:52:00,23.1,11.6,29.89,ESE,121,0.0,2.0,61,0.00,,,0.00,Wunderground v.1.13,2013-02-03 16:52:00,
2013-02-03 11:57:00,23.6,11.4,29.88,SSE,161,2.0,5.0,59,0.00,,,0.00,Wunderground v.1.13,2013-02-03 16:57:00,
2013-02-03 12:02:00,23.6,11.0,29.88,East,80,0.0,4.0,58,0.00,,,0.00,Wunderground v.1.13,2013-02-03 17:02:00,
2013-02-03 12:07:00,23.9,10.9,29.87,SSE,163,1.0,4.0,57,0.00,,,0.00,Wunderground v.1.13,2013-02-03 17:07:00,
2013-02-03 12:12:00,23.9,10.9,29.87,East,88,0.0,3.0,57,0.00,,,0.00,Wunderground v.1.13,2013-02-03 17:12:00,
2013-02-03 12:18:00,24.0,11.0,29.86,ENE,74,3.0,3.0,57,0.00,,,0.00,Wunderground v.1.13,2013-02-03 17:18:00,
2013-02-03 12:23:00,23.6,11.0,29.86,North,5,2.0,2.0,58,0.00,,,0.00,Wunderground v.1.13,2013-02-03 17:23:00,
2013-02-03 12:28:00,23.6,11.4,29.86,East,99,2.0,2.0,59,0.00,,,0.00,Wunderground v.1.13,2013-02-03 17:28:00,
2013-02-03 12:33:00,23.8,11.2,29.86,NE,53,2.0,3.0,58,0.00,,,0.00,Wunderground v.1.13,2013-02-03 17:33:00,
2013-02-03 12:38:00,23.7,10.7,29.86,East,80,3.0,3.0,57,0.00,,,0.00,Wunderground v.1.13,2013-02-03 17:38:00,
2013-02-03 12:43:00,23.8,10.8,29.85,ENE,73,2.0,3.0,57,0.00,,,0.00,Wunderground v.1.13,2013-02-03 17:43:00,
2013-02-03 12:48:00,24.0,11.3,29.85,SSE,156,2.0,2.0,58,0.00,,,0.00,Wunderground v.1.13,2013-02-03 17:48:00,
2013-02-03 12:55:00,24.5,11.4,29.84,SE,134,3.0,3.0,57,0.00,,,0.00,Wunderground v.1.13,2013-02-03 17:55:00,
2013-02-03 13:00:00,25.2,12.1,29.84,SE,130,2.0,2.0,57,0.00,,,0.00,Wunderground v.1.13,2013-02-03 18:00:00,
2013-02-03 13:05:00,25.6,11.7,29.83,SSW,192,0.0,1.0,55,0.00,,,0.00,Wunderground v.1.13,2013-02-03 18:05:00,
2013-02-03 13:10:00,25.7,11.3,29.83,NE,54,3.0,3.0,54,0.00,,,0.00,Wunderground v.1.13,2013-02-03 18:10:00,
2013-02-03 13:15:00,25.5,12.0,29.82,SE,134,1.0,3.0,56,0.00,,,0.00,Wunderground v.1.13,2013-02-03 18:15:00,
2013-02-03 13:20:00,25.5,11.6,29.82,NW,311,2.0,3.0,55,0.00,,,0.00,Wunderground v.1.13,2013-02-03 18:20:00,
2013-02-03 13:25:00,25.2,10.9,29.82,WSW,245,1.0,3.0,54,0.00,,,0.00,Wunderground v.1.13,2013-02-03 18:25:00,
2013-02-03 13:30:00,25.3,11.0,29.82,East,101,1.0,2.0,54,0.00,,,0.00,Wunderground v.1.13,2013-02-03 18:30:00,
2013-02-03 13:36:00,25.5,11.6,29.82,SSE,157,2.0,2.0,55,0.00,,,0.00,Wunderground v.1.13,2013-02-03 18:36:00,
2013-02-03 13:41:00,25.6,10.8,29.82,North,350,1.0,5.0,53,0.00,,,0.00,Wunderground v.1.13,2013-02-03 18:41:00,
2013-02-03 13:46:00,25.6,12.1,29.81,SSE,163,1.0,3.0,56,0.00,,,0.00,Wunderground v.1.13,2013-02-03 18:46:00,
2013-02-03 13:51:00,25.8,11.0,29.81,ESE,117,2.0,3.0,53,0.00,,,0.00,Wunderground v.1.13,2013-02-03 18:51:00,
2013-02-03 13:56:00,25.6,10.8,29.81,SE,138,0.0,2.0,53,0.00,,,0.00,Wunderground v.1.13,2013-02-03 18:56:00,
2013-02-03 14:01:00,26.0,11.6,29.81,SE,138,2.0,3.0,54,0.00,,,0.00,Wunderground v.1.13,2013-02-03 19:01:00,
2013-02-03 14:07:00,26.3,11.5,29.80,East,96,1.0,3.0,53,0.00,,,0.00,Wunderground v.1.13,2013-02-03 19:07:00,
2013-02-03 14:12:00,26.3,11.0,29.80,SE,144,1.0,2.0,52,0.00,,,0.00,Wunderground v.1.13,2013-02-03 19:12:00,
2013-02-03 14:17:00,26.2,10.9,29.80,SSE,160,2.0,3.0,52,0.00,,,0.00,Wunderground v.1.13,2013-02-03 19:17:00,
2013-02-03 14:22:00,26.2,10.9,29.80,North,360,1.0,4.0,52,0.00,,,0.00,Wunderground v.1.13,2013-02-03 19:22:00,
2013-02-03 14:27:00,26.0,10.8,29.80,NE,47,0.0,6.0,52,0.00,,,0.00,Wunderground v.1.13,2013-02-03 19:27:00,
2013-02-03 14:32:00,26.0,11.2,29.80,ENE,77,3.0,4.0,53,0.00,,,0.00,Wunderground v.1.13,2013-02-03 19:32:00,
2013-02-03 14:37:00,25.8,11.0,29.80,SSE,148,0.0,4.0,53,0.00,,,0.00,Wunderground v.1.13,2013-02-03 19:37:00,
2013-02-03 14:42:00,25.8,11.4,29.80,ESE,105,0.0,1.0,54,0.00,,,0.00,Wunderground v.1.13,2013-02-03 19:42:00,
2013-02-03 14:48:00,25.7,10.9,29.80,SW,223,2.0,2.0,53,0.00,,,0.00,Wunderground v.1.13,2013-02-03 19:48:00,
2013-02-03 14:53:00,25.4,11.0,29.80,SW,225,0.0,1.0,54,0.00,,,0.00,Wunderground v.1.13,2013-02-03 19:53:00,
2013-02-03 14:58:00,25.4,11.0,29.80,SW,225,2.0,3.0,54,0.00,,,0.00,Wunderground v.1.13,2013-02-03 19:58:00,
2013-02-03 15:04:00,25.3,11.0,29.79,SE,126,0.0,2.0,54,0.00,,,0.00,Wunderground v.1.13,2013-02-03 20:04:00,
2013-02-03 15:09:00,25.5,11.1,29.79,East,94,1.0,1.0,54,0.00,,,0.00,Wunderground v.1.13,2013-02-03 20:09:00,
2013-02-03 15:14:00,25.6,11.2,29.79,SSE,148,0.0,2.0,54,0.00,,,0.00,Wunderground v.1.13,2013-02-03 20:14:00,
2013-02-03 15:20:00,25.7,11.7,29.79,SSE,148,0.0,2.0,55,0.00,,,0.00,Wunderground v.1.13,2013-02-03 20:20:00,
2013-02-03 15:25:00,25.9,11.5,29.79,WSW,252,0.0,2.0,54,0.00,,,0.00,Wunderground v.1.13,2013-02-03 20:25:00,
2013-02-03 15:30:00,25.7,11.3,29.79,SSE,158,2.0,3.0,54,0.00,,,0.00,Wunderground v.1.13,2013-02-03 20:30:00,
2013-02-03 15:35:00,25.7,12.2,29.79,SSE,158,0.0,1.0,56,0.00,,,0.00,Wunderground v.1.13,2013-02-03 20:35:00,
2013-02-03 15:40:00,25.7,11.7,29.79,SSE,158,0.0,1.0,55,0.00,,,0.00,Wunderground v.1.13,2013-02-03 20:40:00,
2013-02-03 15:45:00,25.4,11.0,29.79,SSE,168,0.0,1.0,54,0.00,,,0.00,Wunderground v.1.13,2013-02-03 20:45:00,
2013-02-03 15:50:00,25.2,11.3,29.79,SSE,168,0.0,0.0,55,0.00,,,0.00,Wunderground v.1.13,2013-02-03 20:50:00,
2013-02-03 15:55:00,25.1,11.2,29.79,SSE,168,0.0,2.0,55,0.00,,,0.00,Wunderground v.1.13,2013-02-03 20:55:00,
2013-02-03 16:00:00,25.0,11.5,29.78,SSE,168,2.0,2.0,56,0.00,,,0.00,Wunderground v.1.13,2013-02-03 21:00:00,
2013-02-03 16:05:00,24.9,11.0,29.78,SSW,192,0.0,2.0,55,0.00,,,0.00,Wunderground v.1.13,2013-02-03 21:05:00,
2013-02-03 16:10:00,24.9,11.4,29.78,SSW,192,0.0,1.0,56,0.00,,,0.00,Wunderground v.1.13,2013-02-03 21:10:00,
2013-02-03 16:16:00,25.3,11.8,29.78,SSW,192,0.0,0.0,56,0.00,,,0.00,Wunderground v.1.13,2013-02-03 21:16:00,
2013-02-03 16:21:00,25.2,11.7,29.78,WNW,295,1.0,2.0,56,0.00,,,0.00,Wunderground v.1.13,2013-02-03 21:21:00,
2013-02-03 16:26:00,24.8,12.1,29.78,WSW,252,0.0,3.0,58,0.00,,,0.00,Wunderground v.1.13,2013-02-03 21:26:00,
2013-02-03 16:32:00,24.4,12.1,29.78,WSW,252,1.0,1.0,59,0.00,,,0.00,Wunderground v.1.13,2013-02-03 21:32:00,
2013-02-03 16:37:00,24.2,12.3,29.78,West,261,1.0,2.0,60,0.00,,,0.00,Wunderground v.1.13,2013-02-03 21:37:00,
2013-02-03 16:42:00,23.9,12.4,29.78,West,280,0.0,4.0,61,0.00,,,0.00,Wunderground v.1.13,2013-02-03 21:42:00,
2013-02-03 16:47:00,23.8,12.3,29.78,West,280,0.0,2.0,61,0.00,,,0.00,Wunderground v.1.13,2013-02-03 21:47:00,
2013-02-03 16:52:00,23.7,12.6,29.78,West,280,2.0,2.0,62,0.00,,,0.00,Wunderground v.1.13,2013-02-03 21:52:00,
2013-02-03 16:57:00,23.4,12.3,29.78,West,277,2.0,3.0,62,0.00,,,0.00,Wunderground v.1.13,2013-02-03 21:57:00,
2013-02-03 17:03:00,23.3,12.6,29.78,West,270,3.0,4.0,63,0.00,,,0.00,Wunderground v.1.13,2013-02-03 22:03:00,
2013-02-03 17:08:00,23.1,12.4,29.78,WSW,240,2.0,5.0,63,0.00,,,0.00,Wunderground v.1.13,2013-02-03 22:08:00,
2013-02-03 17:13:00,23.0,12.6,29.78,WSW,242,0.0,3.0,64,0.00,,,0.00,Wunderground v.1.13,2013-02-03 22:13:00,
2013-02-03 17:18:00,22.8,12.1,29.78,SW,229,1.0,6.0,63,0.00,,,0.00,Wunderground v.1.13,2013-02-03 22:18:00,
2013-02-03 17:23:00,22.7,12.3,29.78,WSW,245,1.0,2.0,64,0.00,,,0.00,Wunderground v.1.13,2013-02-03 22:23:00,
2013-02-03 17:28:00,22.6,12.2,29.78,West,268,1.0,1.0,64,0.00,,,0.00,Wunderground v.1.13,2013-02-03 22:28:00,
2013-02-03 17:33:00,22.5,12.1,29.78,NW,308,0.0,2.0,64,0.00,,,0.00,Wunderground v.1.13,2013-02-03 22:33:00,
2013-02-03 17:38:00,22.5,12.5,29.78,WNW,294,1.0,2.0,65,0.00,,,0.00,Wunderground v.1.13,2013-02-03 22:38:00,
2013-02-03 17:43:00,22.4,12.1,29.78,NNW,329,0.0,1.0,64,0.00,,,0.00,Wunderground v.1.13,2013-02-03 22:43:00,
2013-02-03 17:49:00,22.3,12.3,29.78,WNW,298,2.0,2.0,65,0.00,,,0.00,Wunderground v.1.13,2013-02-03 22:49:00,
2013-02-03 17:55:00,22.1,12.5,29.78,SW,236,0.0,1.0,66,0.00,,,0.00,Wunderground v.1.13,2013-02-03 22:55:00,
2013-02-03 18:00:00,22.1,12.1,29.79,WNW,302,0.0,2.0,65,0.00,,,0.00,Wunderground v.1.13,2013-02-03 23:00:00,
2013-02-03 18:05:00,22.0,12.4,29.79,WNW,283,2.0,4.0,66,0.00,,,0.00,Wunderground v.1.13,2013-02-03 23:05:00,
2013-02-03 18:11:00,21.8,12.2,29.78,West,275,3.0,5.0,66,0.00,,,0.00,Wunderground v.1.13,2013-02-03 23:11:00,
2013-02-03 18:16:00,21.8,12.5,29.78,WSW,252,0.0,2.0,67,0.00,,,0.00,Wunderground v.1.13,2013-02-03 23:16:00,
2013-02-03 18:21:00,21.7,12.1,29.79,West,268,3.0,6.0,66,0.00,,,0.00,Wunderground v.1.13,2013-02-03 23:21:00,
2013-02-03 18:26:00,21.6,12.3,29.78,West,259,2.0,4.0,67,0.00,,,0.00,Wunderground v.1.13,2013-02-03 23:26:00,
2013-02-03 18:32:00,21.6,12.3,29.78,West,265,2.0,2.0,67,0.00,,,0.00,Wunderground v.1.13,2013-02-03 23:32:00,
2013-02-03 18:37:00,21.6,12.3,29.78,West,265,0.0,2.0,67,0.00,,,0.00,Wunderground v.1.13,2013-02-03 23:37:00,
2013-02-03 18:42:00,21.7,12.8,29.78,West,265,0.0,2.0,68,0.00,,,0.00,Wunderground v.1.13,2013-02-03 23:42:00,
2013-02-03 18:47:00,21.7,12.4,29.78,West,265,0.0,2.0,67,0.00,,,0.00,Wunderground v.1.13,2013-02-03 23:47:00,
2013-02-03 18:52:00,21.6,12.0,29.78,West,263,3.0,3.0,66,0.00,,,0.00,Wunderground v.1.13,2013-02-03 23:52:00,
2013-02-03 18:57:00,21.4,12.1,29.78,West,259,0.0,3.0,67,0.00,,,0.00,Wunderground v.1.13,2013-02-03 23:57:00,
2013-02-03 19:02:00,21.1,12.2,29.78,West,275,0.0,5.0,68,0.00,,,0.00,Wunderground v.1.13,2013-02-04 00:02:00,
2013-02-03 19:07:00,21.0,12.1,29.78,WSW,242,0.0,2.0,68,0.00,,,0.00,Wunderground v.1.13,2013-02-04 00:07:00,
2013-02-03 19:12:00,20.9,12.0,29.78,WSW,242,0.0,1.0,68,0.00,,,0.00,Wunderground v.1.13,2013-02-04 00:12:00,
2013-02-03 19:18:00,20.7,12.1,29.78,WSW,258,0.0,0.0,69,0.00,,,0.00,Wunderground v.1.13,2013-02-04 00:18:00,
2013-02-03 19:23:00,20.7,12.1,29.78,WSW,258,0.0,0.0,69,0.00,,,0.00,Wunderground v.1.13,2013-02-04 00:23:00,
2013-02-03 19:28:00,20.8,12.6,29.79,WSW,258,0.0,0.0,70,0.00,,,0.00,Wunderground v.1.13,2013-02-04 00:28:00,
2013-02-03 19:34:00,20.6,12.4,29.79,WSW,258,0.0,0.0,70,0.00,,,0.00,Wunderground v.1.13,2013-02-04 00:34:00,
2013-02-03 19:39:00,20.2,12.3,29.78,WSW,258,0.0,0.0,71,0.00,,,0.00,Wunderground v.1.13,2013-02-04 00:39:00,
2013-02-03 19:44:00,20.0,12.1,29.78,WSW,258,0.0,0.0,71,0.00,,,0.00,Wunderground v.1.13,2013-02-04 00:44:00,
2013-02-03 19:50:00,19.0,11.8,29.79,WSW,258,0.0,1.0,73,0.00,,,0.00,Wunderground v.1.13,2013-02-04 00:50:00,
2013-02-03 19:55:00,18.6,11.4,29.79,WSW,258,0.0,1.0,73,0.00,,,0.00,Wunderground v.1.13,2013-02-04 00:55:00,
2013-02-03 20:00:00,18.2,11.6,29.79,WSW,258,1.0,2.0,75,0.00,,,0.00,Wunderground v.1.13,2013-02-04 01:00:00,
2013-02-03 20:05:00,17.9,11.6,29.79,WSW,258,1.0,2.0,76,0.00,,,0.00,Wunderground v.1.13,2013-02-04 01:05:00,
2013-02-03 20:10:00,17.6,11.3,29.79,WSW,258,0.0,2.0,76,0.00,,,0.00,Wunderground v.1.13,2013-02-04 01:10:00,
2013-02-03 20:15:00,17.4,11.4,29.79,WSW,258,0.0,0.0,77,0.00,,,0.00,Wunderground v.1.13,2013-02-04 01:15:00,
2013-02-03 20:20:00,17.3,11.6,29.79,WSW,258,0.0,0.0,78,0.00,,,0.00,Wunderground v.1.13,2013-02-04 01:20:00,
2013-02-03 20:25:00,17.2,11.5,29.79,WSW,258,0.0,0.0,78,0.00,,,0.00,Wunderground v.1.13,2013-02-04 01:25:00,
2013-02-03 20:30:00,17.2,11.5,29.79,WSW,258,0.0,0.0,78,0.00,,,0.00,Wunderground v.1.13,2013-02-04 01:30:00,
2013-02-03 20:35:00,17.2,11.5,29.79,WSW,258,0.0,0.0,78,0.00,,,0.00,Wunderground v.1.13,2013-02-04 01:35:00,
2013-02-03 20:41:00,17.3,11.9,29.79,WSW,258,0.0,0.0,79,0.00,,,0.00,Wunderground v.1.13,2013-02-04 01:41:00,
2013-02-03 20:46:00,17.5,12.1,29.79,WSW,258,0.0,0.0,79,0.00,,,0.00,Wunderground v.1.13,2013-02-04 01:46:00,
2013-02-03 20:52:00,17.6,12.2,29.79,WSW,258,0.0,0.0,79,0.00,,,0.00,Wunderground v.1.13,2013-02-04 01:52:00,
2013-02-03 20:57:00,17.6,12.2,29.79,WSW,258,1.0,1.0,79,0.00,,,0.00,Wunderground v.1.13,2013-02-04 01:57:00,
2013-02-03 21:02:00,17.4,12.0,29.79,WSW,258,2.0,2.0,79,0.00,,,0.00,Wunderground v.1.13,2013-02-04 02:02:00,
2013-02-03 21:07:00,17.0,11.6,29.79,WSW,258,1.0,2.0,79,0.00,,,0.00,Wunderground v.1.13,2013-02-04 02:07:00,
2013-02-03 21:13:00,16.8,11.7,29.79,WSW,258,0.0,1.0,80,0.00,,,0.00,Wunderground v.1.13,2013-02-04 02:13:00,
2013-02-03 21:18:00,16.8,12.0,29.79,WSW,258,0.0,0.0,81,0.00,,,0.00,Wunderground v.1.13,2013-02-04 02:18:00,
2013-02-03 21:23:00,17.0,12.2,29.79,WSW,258,0.0,0.0,81,0.00,,,0.00,Wunderground v.1.13,2013-02-04 02:23:00,
2013-02-03 21:29:00,17.3,12.7,29.78,WSW,258,0.0,0.0,82,0.00,,,0.00,Wunderground v.1.13,2013-02-04 02:29:00,
2013-02-03 21:34:00,17.5,12.7,29.78,WSW,258,0.0,0.0,81,0.00,,,0.00,Wunderground v.1.13,2013-02-04 02:34:00,
2013-02-03 21:39:00,17.6,12.8,29.78,WSW,258,0.0,0.0,81,0.00,,,0.00,Wunderground v.1.13,2013-02-04 02:39:00,
2013-02-03 21:45:00,17.6,12.8,29.78,WSW,258,0.0,0.0,81,0.00,,,0.00,Wunderground v.1.13,2013-02-04 02:45:00,
2013-02-03 21:50:00,17.9,13.1,29.78,WSW,258,0.0,0.0,81,0.00,,,0.00,Wunderground v.1.13,2013-02-04 02:50:00,
2013-02-03 21:55:00,18.2,13.1,29.78,WSW,258,0.0,0.0,80,0.00,,,0.00,Wunderground v.1.13,2013-02-04 02:55:00,
2013-02-03 22:00:00,18.3,12.9,29.78,WSW,258,0.0,0.0,79,0.00,,,0.00,Wunderground v.1.13,2013-02-04 03:00:00,
2013-02-03 22:05:00,18.2,13.1,29.78,WSW,258,0.0,0.0,80,0.00,,,0.00,Wunderground v.1.13,2013-02-04 03:05:00,
2013-02-03 22:10:00,18.1,13.0,29.78,WSW,258,0.0,0.0,80,0.00,,,0.00,Wunderground v.1.13,2013-02-04 03:10:00,
2013-02-03 22:16:00,18.2,13.1,29.78,WSW,258,0.0,0.0,80,0.00,,,0.00,Wunderground v.1.13,2013-02-04 03:16:00,
2013-02-03 22:22:00,18.2,13.3,29.77,WSW,258,0.0,0.0,81,0.00,,,0.00,Wunderground v.1.13,2013-02-04 03:22:00,
2013-02-03 22:27:00,18.2,13.1,29.77,WSW,258,0.0,1.0,80,0.00,,,0.00,Wunderground v.1.13,2013-02-04 03:27:00,
2013-02-03 22:32:00,18.3,13.2,29.77,WSW,258,1.0,1.0,80,0.00,,,0.00,Wunderground v.1.13,2013-02-04 03:32:00,
2013-02-03 22:37:00,18.5,12.8,29.77,WSW,250,2.0,2.0,78,0.00,,,0.00,Wunderground v.1.13,2013-02-04 03:37:00,
2013-02-03 22:42:00,18.5,12.8,29.77,West,265,1.0,2.0,78,0.00,,,0.00,Wunderground v.1.13,2013-02-04 03:42:00,
2013-02-03 22:47:00,18.5,12.5,29.77,West,265,1.0,1.0,77,0.00,,,0.00,Wunderground v.1.13,2013-02-04 03:47:00,
2013-02-03 22:52:00,18.5,12.5,29.77,West,265,1.0,1.0,77,0.00,,,0.00,Wunderground v.1.13,2013-02-04 03:52:00,
2013-02-03 22:58:00,18.4,12.4,29.77,West,265,0.0,0.0,77,0.00,,,0.00,Wunderground v.1.13,2013-02-04 03:58:00,
2013-02-03 23:03:00,18.4,12.4,29.77,West,265,0.0,0.0,77,0.00,,,0.00,Wunderground v.1.13,2013-02-04 04:03:00,
2013-02-03 23:08:00,18.2,12.2,29.77,West,265,0.0,0.0,77,0.00,,,0.00,Wunderground v.1.13,2013-02-04 04:08:00,
2013-02-03 23:13:00,18.0,11.7,29.77,West,265,0.0,0.0,76,0.00,,,0.00,Wunderground v.1.13,2013-02-04 04:13:00,
2013-02-03 23:18:00,17.7,11.4,29.77,West,265,1.0,1.0,76,0.00,,,0.00,Wunderground v.1.13,2013-02-04 04:18:00,
2013-02-03 23:23:00,17.4,11.4,29.76,West,265,0.0,0.0,77,0.00,,,0.00,Wunderground v.1.13,2013-02-04 04:23:00,
2013-02-03 23:28:00,17.1,11.1,29.76,West,265,0.0,0.0,77,0.00,,,0.00,Wunderground v.1.13,2013-02-04 04:28:00,
2013-02-03 23:34:00,17.1,11.4,29.76,West,265,0.0,0.0,78,0.00,,,0.00,Wunderground v.1.13,2013-02-04 04:34:00,
2013-02-03 23:39:00,17.0,11.6,29.76,West,265,0.0,0.0,79,0.00,,,0.00,Wunderground v.1.13,2013-02-04 04:39:00,
2013-02-03 23:44:00,17.2,12.1,29.76,West,265,0.0,0.0,80,0.00,,,0.00,Wunderground v.1.13,2013-02-04 04:44:00,
2013-02-03 23:49:00,17.2,12.1,29.76,West,265,0.0,0.0,80,0.00,,,0.00,Wunderground v.1.13,2013-02-04 04:49:00,
2013-02-03 23:55:00,17.3,11.9,29.76,West,265,0.0,0.0,79,0.00,,,0.00,Wunderground v.1.13,2013-02-04 04:55:00,